Time;durP1;ratioP1;P1;durP2;ratioP2;P2;SDS_P1;SDS_P2;PMS_P1;PMS_P2;Temp;Humidity;BMP_temperature;BMP_pressure;BME280_temperature;BME280_humidity;BME280_pressure;Samples;Min_cycle;Max_cycle;Signal;HPM_P1;HPM_P2
2022/07/30 00:00:19;;;;;;;0.20;0.20;;;17.30;99.90;;;;;;5028988;28;20053;-67
2022/07/30 00:02:44;;;;;;;0.15;0.15;;;17.20;99.90;;;;;;5042732;28;20048;-67
2022/07/30 00:05:10;;;;;;;0.00;0.00;;;17.20;99.90;;;;;;5047188;28;20071;-67
2022/07/30 00:07:36;;;;;;;1.10;0.85;;;17.10;99.90;;;;;;5045065;28;20039;-67
2022/07/30 00:10:03;;;;;;;0.55;0.55;;;17.10;99.90;;;;;;5032098;28;20048;-67
2022/07/30 00:12:29;;;;;;;1.40;0.85;;;17.10;99.90;;;;;;5039983;28;20083;-67
2022/07/30 00:14:54;;;;;;;0.52;0.35;;;17.00;99.90;;;;;;5054892;28;20076;-67
2022/07/30 00:17:20;;;;;;;0.30;0.30;;;17.10;99.90;;;;;;5047029;28;20124;-67
2022/07/30 00:19:46;;;;;;;0.10;0.10;;;17.00;99.90;;;;;;5033959;28;20079;-67
2022/07/30 00:22:11;;;;;;;0.40;0.32;;;16.90;99.90;;;;;;5047425;28;20049;-67
2022/07/30 00:24:37;;;;;;;0.30;0.30;;;16.90;99.90;;;;;;5049031;28;20052;-67
2022/07/30 00:27:03;;;;;;;0.00;0.00;;;17.00;99.90;;;;;;5034840;28;20045;-67
2022/07/30 00:29:29;;;;;;;1.63;0.43;;;16.90;99.90;;;;;;5028727;28;20049;-67
2022/07/30 00:31:55;;;;;;;1.85;0.40;;;16.90;99.90;;;;;;5033371;28;20037;-67
2022/07/30 00:34:21;;;;;;;1.10;1.02;;;16.90;99.90;;;;;;5036168;28;20049;-67
2022/07/30 00:36:46;;;;;;;0.47;0.47;;;16.90;99.90;;;;;;5027953;28;20057;-66
2022/07/30 00:39:12;;;;;;;0.57;0.55;;;16.80;99.90;;;;;;5031400;28;20477;-66
2022/07/30 00:42:02;;;;;;;0.85;0.82;;;16.80;99.90;;;;;;5046894;28;20033;-66
2022/07/30 00:44:28;;;;;;;0.30;0.30;;;16.80;99.90;;;;;;5034270;28;20128;-67
2022/07/30 00:46:54;;;;;;;0.03;0.03;;;16.70;99.90;;;;;;5048208;28;20037;-66
2022/07/30 00:49:20;;;;;;;0.00;0.00;;;16.70;99.90;;;;;;5046025;28;20048;-66
2022/07/30 00:51:46;;;;;;;0.00;0.00;;;16.70;99.90;;;;;;5043264;28;20049;-67
2022/07/30 00:54:12;;;;;;;0.17;0.17;;;16.70;99.90;;;;;;5037883;28;20042;-67
2022/07/30 00:56:37;;;;;;;0.82;0.82;;;16.70;99.90;;;;;;5030023;28;20543;-67
2022/07/30 00:59:03;;;;;;;9.45;0.63;;;16.70;99.90;;;;;;5032545;28;20064;-66
2022/07/30 01:01:31;;;;;;;0.00;0.00;;;16.70;99.90;;;;;;5034685;28;20052;-66
2022/07/30 01:03:57;;;;;;;0.00;0.00;;;16.80;99.90;;;;;;5046770;28;20527;-66
2022/07/30 01:06:23;;;;;;;0.20;0.20;;;16.70;99.90;;;;;;5041539;28;20041;-67
2022/07/30 01:08:49;;;;;;;0.73;0.73;;;16.70;99.90;;;;;;5044115;28;20050;-67
2022/07/30 01:11:15;;;;;;;0.50;0.50;;;16.60;99.90;;;;;;5031430;28;20086;-67
2022/07/30 01:13:41;;;;;;;0.20;0.20;;;16.60;99.90;;;;;;5047688;28;20090;-67
2022/07/30 01:16:08;;;;;;;0.08;0.08;;;16.60;99.90;;;;;;5037401;28;20056;-67
2022/07/30 01:21:29;;;;;;;0.13;0.13;;;16.60;99.90;;;;;;5033543;28;20120;-67
2022/07/30 01:24:01;;;;;;;0.30;0.30;;;16.60;99.90;;;;;;5031460;28;20045;-67
2022/07/30 01:26:28;;;;;;;1.27;1.27;;;16.60;99.90;;;;;;5035380;28;20075;-66
2022/07/30 01:28:55;;;;;;;0.52;0.45;;;16.50;99.90;;;;;;5033622;28;20132;-67
2022/07/30 01:31:23;;;;;;;0.10;0.10;;;16.50;99.90;;;;;;5042845;28;20060;-66
2022/07/30 01:33:50;;;;;;;0.40;0.40;;;16.40;99.90;;;;;;5037537;28;20048;-66
2022/07/30 01:36:19;;;;;;;0.10;0.10;;;16.50;99.90;;;;;;5049495;28;20124;-67
2022/07/30 01:38:47;;;;;;;0.08;0.08;;;16.50;99.90;;;;;;5041303;28;20084;-67
2022/07/30 01:41:14;;;;;;;0.32;0.32;;;16.50;99.90;;;;;;5031318;28;20048;-67
2022/07/30 01:43:41;;;;;;;0.80;0.47;;;16.50;99.90;;;;;;5031045;28;20049;-66
2022/07/30 01:46:09;;;;;;;0.22;0.22;;;16.60;99.90;;;;;;5032647;28;20148;-67
2022/07/30 01:48:41;;;;;;;0.10;0.10;;;16.60;99.90;;;;;;5049880;28;20040;-67
2022/07/30 01:51:08;;;;;;;0.10;0.10;;;16.50;99.90;;;;;;5035732;28;20048;-67
2022/07/30 01:53:38;;;;;;;0.50;0.50;;;16.30;99.90;;;;;;5055915;28;20044;-66
2022/07/30 01:56:06;;;;;;;0.90;0.50;;;16.20;99.90;;;;;;5042486;28;20043;-66
2022/07/30 01:58:36;;;;;;;1.10;1.05;;;16.10;99.90;;;;;;5033754;28;20406;-66
2022/07/30 02:01:02;;;;;;;0.20;0.20;;;16.00;99.90;;;;;;5039506;28;20501;-66
2022/07/30 02:03:28;;;;;;;1.55;1.23;;;16.00;99.90;;;;;;5042583;28;20562;-66
2022/07/30 02:06:03;;;;;;;0.20;0.20;;;15.90;99.90;;;;;;5049592;28;20045;-66
2022/07/30 02:08:44;;;;;;;0.50;0.45;;;15.80;99.90;;;;;;5050093;28;20037;-66
2022/07/30 02:11:14;;;;;;;0.20;0.20;;;15.80;99.90;;;;;;5040535;28;20044;-66
2022/07/30 02:13:51;;;;;;;0.03;0.03;;;15.70;99.90;;;;;;5039734;28;20072;-66
2022/07/30 02:16:23;;;;;;;0.00;0.00;;;15.80;99.90;;;;;;5033249;28;20053;-67
2022/07/30 02:19:08;;;;;;;0.10;0.10;;;15.70;99.90;;;;;;5049013;28;20132;-66
2022/07/30 02:21:41;;;;;;;0.13;0.13;;;15.70;99.90;;;;;;5049042;28;20053;-66
2022/07/30 02:24:13;;;;;;;0.00;0.00;;;15.70;99.90;;;;;;5049413;28;20053;-66
2022/07/30 02:26:41;;;;;;;1.10;1.08;;;15.60;99.90;;;;;;5043221;28;20041;-67
2022/07/30 02:29:09;;;;;;;0.13;0.13;;;15.70;99.90;;;;;;5040183;28;20480;-66
2022/07/30 02:31:36;;;;;;;0.20;0.20;;;15.60;99.90;;;;;;5049774;28;20098;-67
2022/07/30 02:34:04;;;;;;;0.40;0.40;;;15.70;99.90;;;;;;5047045;28;20049;-67
2022/07/30 02:36:32;;;;;;;0.10;0.10;;;15.70;99.90;;;;;;5047371;28;20485;-66
2022/07/30 02:38:58;;;;;;;0.22;0.22;;;15.70;99.90;;;;;;5034831;28;20065;-67
2022/07/30 02:41:26;;;;;;;0.32;0.32;;;15.70;99.90;;;;;;5043046;28;20123;-67
2022/07/30 02:43:53;;;;;;;0.20;0.20;;;15.70;99.90;;;;;;5032611;28;20116;-66
2022/07/30 02:46:21;;;;;;;0.00;0.00;;;15.60;99.90;;;;;;5033401;28;20049;-66
2022/07/30 02:48:48;;;;;;;4.10;1.40;;;15.60;99.90;;;;;;5049432;28;20056;-66
2022/07/30 02:51:16;;;;;;;0.17;0.17;;;15.60;99.90;;;;;;5049363;28;20551;-66
2022/07/30 02:53:44;;;;;;;0.75;0.50;;;15.70;99.90;;;;;;5036847;28;20037;-66
2022/07/30 02:56:11;;;;;;;0.10;0.10;;;15.70;99.90;;;;;;5048124;28;20033;-66
2022/07/30 02:58:39;;;;;;;0.10;0.10;;;15.70;99.90;;;;;;5049819;28;20052;-67
2022/07/30 03:01:06;;;;;;;4.53;1.15;;;15.60;99.90;;;;;;5038339;28;20037;-66
2022/07/30 03:03:32;;;;;;;0.20;0.20;;;15.70;99.90;;;;;;5036913;28;20049;-66
2022/07/30 03:05:59;;;;;;;0.52;0.52;;;15.60;99.90;;;;;;5030575;28;20132;-66
2022/07/30 03:08:26;;;;;;;0.45;0.43;;;15.50;99.90;;;;;;5039486;28;20094;-66
2022/07/30 03:10:54;;;;;;;0.22;0.20;;;15.50;99.90;;;;;;5040777;28;20056;-66
2022/07/30 03:13:20;;;;;;;0.65;0.65;;;15.50;99.90;;;;;;5038192;28;20040;-66
2022/07/30 03:15:49;;;;;;;0.88;0.88;;;15.50;99.90;;;;;;5031280;28;20053;-66
2022/07/30 03:18:17;;;;;;;10.40;1.67;;;15.50;99.90;;;;;;5043109;28;20048;-66
2022/07/30 03:20:47;;;;;;;0.50;0.35;;;15.50;99.90;;;;;;5034602;28;20072;-66
2022/07/30 03:23:16;;;;;;;0.98;0.45;;;15.50;99.90;;;;;;5031975;28;20037;-66
2022/07/30 03:25:53;;;;;;;0.10;0.10;;;15.50;99.90;;;;;;5038984;28;20052;-66
2022/07/30 03:28:20;;;;;;;0.52;0.32;;;15.50;99.90;;;;;;5041713;28;20492;-66
2022/07/30 03:30:45;;;;;;;0.20;0.20;;;15.50;99.90;;;;;;5040567;28;20055;-67
2022/07/30 03:33:12;;;;;;;0.10;0.10;;;15.40;99.90;;;;;;5030578;28;20124;-66
2022/07/30 03:35:40;;;;;;;0.03;0.03;;;15.40;99.90;;;;;;5035347;28;20380;-66
2022/07/30 03:38:06;;;;;;;0.20;0.20;;;15.40;99.90;;;;;;5047133;28;20052;-66
2022/07/30 03:40:33;;;;;;;0.17;0.17;;;15.40;99.90;;;;;;5048916;28;20099;-67
2022/07/30 03:42:59;;;;;;;0.30;0.30;;;15.40;99.90;;;;;;5064288;28;20612;-66
2022/07/30 03:45:25;;;;;;;0.28;0.28;;;15.40;99.90;;;;;;5049623;28;20048;-66
2022/07/30 03:47:51;;;;;;;0.60;0.60;;;15.40;99.90;;;;;;5039869;28;20136;-66
2022/07/30 03:50:17;;;;;;;0.17;0.17;;;15.30;99.90;;;;;;5042415;28;20079;-66
2022/07/30 03:52:43;;;;;;;0.10;0.10;;;15.30;99.90;;;;;;5049503;28;20081;-66
2022/07/30 03:55:11;;;;;;;0.00;0.00;;;15.40;99.90;;;;;;5047624;28;20044;-66
2022/07/30 03:57:36;;;;;;;0.30;0.30;;;15.50;99.90;;;;;;5038487;28;20091;-66
2022/07/30 04:00:07;;;;;;;0.20;0.20;;;15.50;99.90;;;;;;5029065;28;20061;-66
2022/07/30 04:02:43;;;;;;;0.35;0.35;;;15.50;99.90;;;;;;5037388;28;20124;-67
2022/07/30 04:05:13;;;;;;;0.10;0.10;;;15.50;99.90;;;;;;5037900;28;20049;-66
2022/07/30 04:07:39;;;;;;;0.10;0.10;;;15.50;99.90;;;;;;5033200;28;20048;-66
2022/07/30 04:10:06;;;;;;;0.20;0.20;;;15.50;99.90;;;;;;5028341;28;20048;-66
2022/07/30 04:12:32;;;;;;;0.30;0.30;;;15.60;99.90;;;;;;5031813;28;20049;-66
2022/07/30 04:14:58;;;;;;;0.10;0.10;;;15.50;99.90;;;;;;5029303;28;20107;-66
2022/07/30 04:17:33;;;;;;;0.10;0.10;;;15.60;99.90;;;;;;5036620;28;20040;-66
2022/07/30 04:20:06;;;;;;;0.15;0.15;;;15.70;99.90;;;;;;5028321;28;20045;-66
2022/07/30 04:22:34;;;;;;;0.15;0.15;;;15.70;99.90;;;;;;5028529;28;20366;-66
2022/07/30 04:25:02;;;;;;;0.10;0.10;;;15.70;99.90;;;;;;5043910;28;20055;-66
2022/07/30 04:27:29;;;;;;;0.10;0.10;;;15.70;99.90;;;;;;5047246;28;20045;-66
2022/07/30 04:29:55;;;;;;;0.25;0.25;;;15.70;99.90;;;;;;5033057;28;20080;-67
2022/07/30 04:32:21;;;;;;;11.98;0.38;;;15.70;99.90;;;;;;5042911;28;20087;-66
2022/07/30 04:34:53;;;;;;;0.13;0.13;;;15.80;99.90;;;;;;5037231;28;20084;-66
2022/07/30 04:37:21;;;;;;;0.10;0.10;;;15.80;99.90;;;;;;5040428;28;20041;-66
2022/07/30 04:39:50;;;;;;;0.13;0.13;;;15.80;99.90;;;;;;5048433;28;20075;-66
2022/07/30 04:42:15;;;;;;;0.10;0.10;;;15.80;99.90;;;;;;5046610;28;20033;-66
2022/07/30 04:44:41;;;;;;;0.10;0.10;;;15.90;99.90;;;;;;5030194;28;20161;-66
2022/07/30 04:47:07;;;;;;;0.20;0.20;;;15.80;99.90;;;;;;5031395;28;20381;-66
2022/07/30 04:49:33;;;;;;;0.05;0.05;;;15.70;99.90;;;;;;5038365;28;20045;-66
2022/07/30 04:51:59;;;;;;;0.10;0.10;;;15.60;99.90;;;;;;5035414;28;20085;-66
2022/07/30 04:54:27;;;;;;;0.00;0.00;;;15.70;99.90;;;;;;5047824;28;20049;-66
2022/07/30 04:56:53;;;;;;;0.05;0.05;;;15.80;99.90;;;;;;5029588;28;20481;-66
2022/07/30 04:59:22;;;;;;;0.50;0.50;;;15.80;99.90;;;;;;5036166;28;20048;-67
2022/07/30 05:01:49;;;;;;;1.45;1.25;;;15.90;99.90;;;;;;5035304;28;20051;-66
2022/07/30 05:04:16;;;;;;;3.85;0.45;;;16.00;99.90;;;;;;5039217;28;20120;-66
2022/07/30 05:06:42;;;;;;;0.10;0.10;;;16.10;99.90;;;;;;5028296;28;20042;-66
2022/07/30 05:09:08;;;;;;;0.10;0.10;;;16.30;99.90;;;;;;5039345;28;20063;-66
2022/07/30 05:11:34;;;;;;;0.00;0.00;;;16.40;99.90;;;;;;5042266;28;20486;-67
2022/07/30 05:14:00;;;;;;;0.10;0.10;;;16.50;99.90;;;;;;5027983;28;20052;-67
2022/07/30 05:16:26;;;;;;;0.08;0.08;;;16.60;99.90;;;;;;5040616;28;20041;-66
2022/07/30 05:18:52;;;;;;;0.10;0.10;;;16.60;99.90;;;;;;5036751;28;20424;-66
2022/07/30 05:21:18;;;;;;;7.20;1.25;;;16.60;99.90;;;;;;5047541;28;20059;-67
2022/07/30 05:23:44;;;;;;;0.10;0.10;;;16.70;99.90;;;;;;5047898;28;20049;-66
2022/07/30 05:26:09;;;;;;;2.70;0.68;;;16.80;99.90;;;;;;5044015;28;20052;-67
2022/07/30 05:28:35;;;;;;;0.00;0.00;;;16.80;99.90;;;;;;5033062;28;20040;-67
2022/07/30 05:31:00;;;;;;;0.08;0.08;;;16.80;99.90;;;;;;5036174;28;20098;-67
2022/07/30 05:33:26;;;;;;;0.00;0.00;;;16.90;99.90;;;;;;5048230;28;20052;-67
2022/07/30 05:35:52;;;;;;;1.10;0.65;;;16.90;99.90;;;;;;5032110;28;20056;-66
2022/07/30 05:38:17;;;;;;;0.40;0.40;;;17.00;99.90;;;;;;5036316;28;20059;-67
2022/07/30 05:40:45;;;;;;;0.10;0.10;;;17.00;99.90;;;;;;5047708;28;20037;-66
2022/07/30 05:43:11;;;;;;;0.00;0.00;;;17.10;99.90;;;;;;5042930;28;20124;-66
2022/07/30 05:45:36;;;;;;;0.00;0.00;;;17.20;99.90;;;;;;5046532;28;20503;-66
2022/07/30 05:48:02;;;;;;;0.00;0.00;;;17.30;99.90;;;;;;5048095;28;20045;-67
2022/07/30 05:50:27;;;;;;;1.38;1.27;;;17.30;99.90;;;;;;5045139;28;20041;-67
2022/07/30 05:52:54;;;;;;;0.08;0.08;;;17.40;99.90;;;;;;5029529;28;20080;-67
2022/07/30 05:55:20;;;;;;;0.00;0.00;;;17.40;99.90;;;;;;5041161;28;20041;-67
2022/07/30 05:57:46;;;;;;;0.28;0.28;;;17.50;99.90;;;;;;5046504;28;20045;-66
2022/07/30 06:00:12;;;;;;;0.00;0.00;;;17.50;99.90;;;;;;5046696;28;20049;-67
2022/07/30 06:02:40;;;;;;;0.00;0.00;;;17.60;99.90;;;;;;5030675;28;20064;-66
2022/07/30 06:05:07;;;;;;;0.10;0.10;;;17.60;99.90;;;;;;5046361;28;20044;-66
2022/07/30 06:07:33;;;;;;;0.00;0.00;;;17.60;99.90;;;;;;5046452;28;20060;-66
2022/07/30 06:09:59;;;;;;;0.10;0.10;;;17.60;99.90;;;;;;5028059;28;20788;-67
2022/07/30 06:12:26;;;;;;;0.10;0.10;;;17.60;99.90;;;;;;5040018;28;20049;-67
2022/07/30 06:14:52;;;;;;;0.70;0.65;;;17.70;99.90;;;;;;5046861;28;20124;-67
2022/07/30 06:17:18;;;;;;;0.22;0.22;;;17.70;99.90;;;;;;5033329;28;20141;-67
2022/07/30 06:19:43;;;;;;;0.10;0.10;;;17.80;99.90;;;;;;5035194;28;20480;-67
2022/07/30 06:22:09;;;;;;;0.00;0.00;;;17.80;99.90;;;;;;5035679;28;20131;-67
2022/07/30 06:24:34;;;;;;;0.10;0.10;;;17.80;99.90;;;;;;5043520;28;20383;-67
2022/07/30 06:27:00;;;;;;;0.05;0.05;;;18.00;99.90;;;;;;5050699;28;20666;-67
2022/07/30 06:29:26;;;;;;;0.00;0.00;;;18.10;99.90;;;;;;5038158;28;20115;-67
2022/07/30 06:31:51;;;;;;;0.00;0.00;;;18.10;99.90;;;;;;5038601;28;20079;-67
2022/07/30 06:34:17;;;;;;;0.00;0.00;;;18.20;99.90;;;;;;5030234;28;21041;-67
2022/07/30 06:36:42;;;;;;;0.20;0.20;;;18.20;99.90;;;;;;5047368;28;20040;-67
2022/07/30 06:39:08;;;;;;;0.10;0.10;;;18.30;99.90;;;;;;5032269;28;20049;-67
2022/07/30 06:41:33;;;;;;;0.73;0.32;;;18.30;99.90;;;;;;5031356;28;20499;-67
2022/07/30 06:43:59;;;;;;;0.20;0.20;;;18.40;99.90;;;;;;5033582;28;20042;-67
2022/07/30 06:46:25;;;;;;;0.10;0.10;;;18.40;99.90;;;;;;5030245;28;20448;-67
2022/07/30 06:48:50;;;;;;;0.00;0.00;;;18.50;99.90;;;;;;5034641;28;20446;-66
2022/07/30 06:51:16;;;;;;;0.10;0.10;;;18.50;99.90;;;;;;5044428;28;20041;-67
2022/07/30 06:53:44;;;;;;;3.10;1.95;;;18.50;99.90;;;;;;5041999;28;20048;-67
2022/07/30 06:56:10;;;;;;;0.00;0.00;;;18.40;99.90;;;;;;5039121;28;20127;-67
2022/07/30 06:58:36;;;;;;;0.73;0.65;;;18.40;99.90;;;;;;5049525;28;20049;-67
2022/07/30 07:01:01;;;;;;;0.20;0.20;;;18.30;99.90;;;;;;5046296;28;20074;-67
2022/07/30 07:03:27;;;;;;;0.25;0.25;;;18.30;99.90;;;;;;5044483;28;20090;-67
2022/07/30 07:05:52;;;;;;;0.32;0.32;;;18.40;99.90;;;;;;5032653;28;20042;-67
2022/07/30 07:08:18;;;;;;;0.08;0.08;;;18.40;99.90;;;;;;5036726;28;20489;-66
2022/07/30 07:10:43;;;;;;;0.00;0.00;;;18.50;99.90;;;;;;5033749;28;20045;-67
2022/07/30 07:13:09;;;;;;;0.20;0.20;;;18.60;99.90;;;;;;5047486;28;20094;-67
2022/07/30 07:15:35;;;;;;;0.00;0.00;;;18.70;99.90;;;;;;5048619;28;20068;-67
2022/07/30 07:18:00;;;;;;;0.10;0.10;;;18.70;99.90;;;;;;5037096;28;20402;-67
2022/07/30 07:20:26;;;;;;;0.00;0.00;;;18.70;99.90;;;;;;5031388;28;20516;-67
2022/07/30 07:22:51;;;;;;;0.10;0.10;;;18.60;99.90;;;;;;5039050;28;20832;-67
2022/07/30 07:25:17;;;;;;;0.30;0.30;;;18.60;99.90;;;;;;5048818;28;20052;-67
2022/07/30 07:27:43;;;;;;;0.10;0.10;;;18.70;99.90;;;;;;5044605;28;20055;-67
2022/07/30 07:30:09;;;;;;;0.00;0.00;;;18.70;99.90;;;;;;5048629;28;20128;-67
2022/07/30 07:32:35;;;;;;;0.10;0.10;;;18.70;99.90;;;;;;5032193;28;20049;-67
2022/07/30 07:35:01;;;;;;;0.25;0.25;;;18.60;99.90;;;;;;5030627;28;20118;-67
2022/07/30 07:37:27;;;;;;;0.28;0.28;;;18.70;99.90;;;;;;5029494;28;20088;-67
2022/07/30 07:39:52;;;;;;;0.35;0.35;;;18.70;99.90;;;;;;5048201;28;20120;-67
2022/07/30 07:42:18;;;;;;;0.05;0.05;;;18.80;99.90;;;;;;5041835;28;20042;-68
2022/07/30 07:44:43;;;;;;;0.20;0.20;;;18.80;99.90;;;;;;5037225;28;20052;-68
2022/07/30 07:47:09;;;;;;;0.10;0.10;;;19.00;99.90;;;;;;5028930;28;20045;-68
2022/07/30 07:49:35;;;;;;;0.15;0.15;;;19.10;99.90;;;;;;5032623;28;20037;-68
2022/07/30 07:52:00;;;;;;;0.10;0.10;;;19.30;99.90;;;;;;5029033;28;20081;-68
2022/07/30 07:54:26;;;;;;;1.98;0.75;;;19.30;99.90;;;;;;5032112;28;20064;-68
2022/07/30 07:56:54;;;;;;;0.00;0.00;;;19.30;99.90;;;;;;5036626;28;20098;-67
2022/07/30 07:59:20;;;;;;;0.70;0.35;;;19.20;99.90;;;;;;5031880;28;20542;-67
2022/07/30 08:01:45;;;;;;;0.00;0.00;;;19.10;99.90;;;;;;5029979;28;20076;-67
2022/07/30 08:04:11;;;;;;;0.20;0.20;;;19.00;99.90;;;;;;5034642;28;20064;-68
2022/07/30 08:06:36;;;;;;;0.08;0.08;;;19.20;99.90;;;;;;5032115;28;20468;-68
2022/07/30 08:09:02;;;;;;;0.28;0.28;;;19.20;99.90;;;;;;5044542;28;20477;-67
2022/07/30 08:11:28;;;;;;;0.00;0.00;;;19.30;99.90;;;;;;5040418;28;20047;-67
2022/07/30 08:13:54;;;;;;;0.05;0.05;;;19.40;99.90;;;;;;5030239;28;20089;-67
2022/07/30 08:16:20;;;;;;;0.10;0.10;;;19.50;99.90;;;;;;5029822;28;20053;-67
2022/07/30 08:18:45;;;;;;;0.00;0.00;;;19.50;99.90;;;;;;5034603;28;20042;-68
2022/07/30 08:21:11;;;;;;;0.10;0.10;;;19.60;99.90;;;;;;5042000;28;20450;-67
2022/07/30 08:23:37;;;;;;;0.00;0.00;;;19.60;99.90;;;;;;5048005;28;20037;-67
2022/07/30 08:26:02;;;;;;;0.00;0.00;;;19.70;99.90;;;;;;5047265;28;20480;-67
2022/07/30 08:28:28;;;;;;;0.10;0.10;;;19.80;99.90;;;;;;5036674;28;20049;-67
2022/07/30 08:30:54;;;;;;;2.45;1.35;;;19.80;99.90;;;;;;5041398;28;20567;-67
2022/07/30 08:33:19;;;;;;;0.00;0.00;;;19.80;99.90;;;;;;5035388;28;20123;-68
2022/07/30 08:35:45;;;;;;;0.00;0.00;;;19.80;99.90;;;;;;5040299;28;20059;-67
2022/07/30 08:38:12;;;;;;;0.50;0.50;;;20.00;99.90;;;;;;5037532;28;20146;-68
2022/07/30 08:40:37;;;;;;;0.00;0.00;;;20.10;99.90;;;;;;5046560;28;20045;-67
2022/07/30 08:43:06;;;;;;;0.00;0.00;;;20.10;99.90;;;;;;5036545;28;20056;-67
2022/07/30 08:45:32;;;;;;;0.38;0.38;;;20.10;99.90;;;;;;5038819;28;20095;-68
2022/07/30 08:48:02;;;;;;;0.10;0.10;;;20.10;99.90;;;;;;5046728;28;20041;-67
2022/07/30 08:50:28;;;;;;;0.30;0.30;;;20.20;99.90;;;;;;5038765;28;20049;-68
2022/07/30 08:52:54;;;;;;;0.10;0.10;;;20.30;99.90;;;;;;5043641;28;20044;-68
2022/07/30 08:55:24;;;;;;;0.08;0.08;;;20.40;99.90;;;;;;5037565;28;20396;-67
2022/07/30 08:57:50;;;;;;;0.10;0.10;;;20.30;99.90;;;;;;5029145;28;20052;-67
2022/07/30 09:00:17;;;;;;;0.03;0.03;;;20.10;99.90;;;;;;5040386;28;20062;-68
2022/07/30 09:02:43;;;;;;;0.10;0.10;;;20.10;99.90;;;;;;5036970;28;20044;-67
2022/07/30 09:05:09;;;;;;;0.85;0.52;;;20.10;99.90;;;;;;5048324;28;20128;-68
2022/07/30 09:07:36;;;;;;;0.10;0.10;;;20.20;99.90;;;;;;5037617;28;20033;-68
2022/07/30 09:10:07;;;;;;;0.28;0.28;;;20.30;99.90;;;;;;5029745;28;20041;-68
2022/07/30 09:12:39;;;;;;;0.20;0.20;;;20.40;99.90;;;;;;5034966;28;20508;-68
2022/07/30 09:15:16;;;;;;;0.32;0.30;;;20.30;99.90;;;;;;5036018;28;20050;-67
2022/07/30 09:17:54;;;;;;;0.00;0.00;;;20.20;99.90;;;;;;5047382;28;20039;-67
2022/07/30 09:20:34;;;;;;;0.15;0.15;;;20.30;99.90;;;;;;5043191;28;20112;-68
2022/07/30 09:23:02;;;;;;;0.17;0.17;;;20.50;99.90;;;;;;5044009;28;20092;-69
2022/07/30 09:25:43;;;;;;;1.27;0.45;;;20.50;99.90;;;;;;5039111;28;20072;-67
2022/07/30 09:28:10;;;;;;;1.95;0.70;;;20.50;99.90;;;;;;5031327;28;20144;-67
2022/07/30 09:30:44;;;;;;;0.13;0.13;;;20.60;99.90;;;;;;5047290;28;20033;-66
2022/07/30 09:33:10;;;;;;;0.00;0.00;;;20.70;99.90;;;;;;5038160;28;20056;-66
2022/07/30 09:35:35;;;;;;;0.10;0.10;;;20.80;99.90;;;;;;5040625;28;20037;-66
2022/07/30 09:38:03;;;;;;;0.20;0.20;;;20.80;99.90;;;;;;5045065;28;20037;-66
2022/07/30 09:40:28;;;;;;;0.30;0.30;;;20.90;99.90;;;;;;5047230;28;20107;-66
2022/07/30 09:43:10;;;;;;;0.13;0.13;;;20.90;99.90;;;;;;5045979;28;20045;-66
2022/07/30 09:45:48;;;;;;;0.25;0.13;;;21.00;99.90;;;;;;5041043;28;20048;-66
2022/07/30 09:48:21;;;;;;;0.00;0.00;;;21.30;99.90;;;;;;5045959;28;20049;-67
2022/07/30 09:50:49;;;;;;;0.00;0.00;;;22.00;99.90;;;;;;5031643;28;20062;-66
2022/07/30 09:53:14;;;;;;;0.10;0.10;;;22.50;99.90;;;;;;5038907;28;20049;-66
2022/07/30 09:55:41;;;;;;;0.10;0.10;;;22.90;99.90;;;;;;5039871;28;20048;-67
2022/07/30 09:58:06;;;;;;;0.00;0.00;;;23.00;99.90;;;;;;5041191;28;20143;-66
2022/07/30 10:00:34;;;;;;;1.15;0.60;;;23.10;99.90;;;;;;5043205;28;20128;-66
2022/07/30 10:03:01;;;;;;;0.30;0.30;;;23.20;99.90;;;;;;5039462;28;20041;-67
2022/07/30 10:05:28;;;;;;;0.15;0.15;;;23.30;99.90;;;;;;5034925;28;20174;-67
2022/07/30 10:07:59;;;;;;;0.20;0.20;;;23.30;99.90;;;;;;5050774;28;20469;-68
2022/07/30 10:10:27;;;;;;;0.10;0.10;;;23.30;99.90;;;;;;5044528;28;20046;-67
2022/07/30 10:12:58;;;;;;;24.65;0.68;;;22.90;99.90;;;;;;5040323;28;20045;-67
2022/07/30 10:15:27;;;;;;;0.00;0.00;;;22.70;99.90;;;;;;5051178;28;20127;-67
2022/07/30 10:17:53;;;;;;;0.10;0.10;;;22.90;99.90;;;;;;5031067;28;20500;-67
2022/07/30 10:20:19;;;;;;;0.10;0.05;;;23.10;99.90;;;;;;5049205;28;20041;-67
2022/07/30 10:22:45;;;;;;;0.17;0.17;;;23.30;99.90;;;;;;5049379;28;20037;-68
2022/07/30 10:25:11;;;;;;;0.00;0.00;;;23.50;99.90;;;;;;5035659;28;20060;-67
2022/07/30 10:27:37;;;;;;;0.20;0.10;;;23.60;99.90;;;;;;5033430;28;20045;-67
2022/07/30 10:30:04;;;;;;;0.20;0.20;;;23.60;99.90;;;;;;5030116;28;20512;-67
2022/07/30 10:32:31;;;;;;;4.43;1.45;;;23.30;99.90;;;;;;5032180;28;20047;-67
2022/07/30 10:34:57;;;;;;;0.52;0.43;;;23.40;99.90;;;;;;5044383;28;20056;-67
2022/07/30 10:37:28;;;;;;;0.10;0.10;;;23.50;99.90;;;;;;5042378;28;20064;-66
2022/07/30 10:40:11;;;;;;;0.20;0.20;;;23.70;99.90;;;;;;5049923;28;20135;-67
2022/07/30 10:43:10;;;;;;;0.05;0.05;;;23.90;99.90;;;;;;5041703;28;20065;-67
2022/07/30 10:46:08;;;;;;;0.35;0.25;;;23.80;99.90;;;;;;5029206;28;20501;-66
2022/07/30 10:48:36;;;;;;;0.47;0.32;;;23.70;99.90;;;;;;5048412;28;20061;-67
2022/07/30 10:51:02;;;;;;;0.10;0.10;;;23.80;99.90;;;;;;5045602;28;20106;-67
2022/07/30 10:53:32;;;;;;;0.08;0.08;;;23.70;99.90;;;;;;5044256;28;20045;-67
2022/07/30 10:56:11;;;;;;;0.17;0.17;;;23.60;99.90;;;;;;5030724;28;20053;-67
2022/07/30 10:58:58;;;;;;;1.45;0.65;;;23.60;99.90;;;;;;5030667;28;20123;-67
2022/07/30 11:01:25;;;;;;;0.57;0.45;;;23.50;99.90;;;;;;5030814;28;20404;-67
2022/07/30 11:04:26;;;;;;;0.15;0.15;;;23.50;99.90;;;;;;5030700;28;20095;-67
2022/07/30 11:07:12;;;;;;;0.00;0.00;;;23.60;99.90;;;;;;5021925;28;20093;-67
2022/07/30 11:09:39;;;;;;;0.00;0.00;;;23.70;99.90;;;;;;5037882;28;20068;-66
2022/07/30 11:12:07;;;;;;;0.00;0.00;;;23.40;99.90;;;;;;5030492;28;20211;-67
2022/07/30 11:14:44;;;;;;;0.30;0.30;;;23.50;99.90;;;;;;5045897;28;20040;-67
2022/07/30 11:17:12;;;;;;;0.00;0.00;;;23.60;99.90;;;;;;5048668;28;20056;-67
2022/07/30 11:20:06;;;;;;;0.00;0.00;;;23.50;99.90;;;;;;5044178;28;20505;-67
2022/07/30 11:22:43;;;;;;;0.75;0.40;;;23.60;99.90;;;;;;5035796;28;20116;-66
2022/07/30 11:25:21;;;;;;;0.05;0.05;;;23.50;99.90;;;;;;5063470;28;20370;-67
2022/07/30 11:27:49;;;;;;;0.00;0.00;;;23.60;99.90;;;;;;5042423;28;20041;-66
2022/07/30 11:30:14;;;;;;;0.10;0.10;;;23.80;99.90;;;;;;5029888;28;20053;-67
2022/07/30 11:32:44;;;;;;;0.05;0.05;;;24.00;99.90;;;;;;5030137;28;20478;-67
2022/07/30 11:35:17;;;;;;;0.05;0.05;;;24.20;99.90;;;;;;5038014;28;20064;-67
2022/07/30 11:38:01;;;;;;;;;;;24.40;99.90;;;;;;5048750;28;20052;-67
2022/07/30 11:40:32;;;;;;;3.53;0.43;;;24.40;99.90;;;;;;5049619;28;20053;-67
2022/07/30 11:43:17;;;;;;;0.00;0.00;;;24.60;99.90;;;;;;5030926;28;20117;-67
2022/07/30 11:45:44;;;;;;;0.10;0.10;;;24.70;99.90;;;;;;5029853;28;20061;-67
2022/07/30 11:48:12;;;;;;;0.03;0.03;;;25.00;99.90;;;;;;5029817;28;20049;-67
2022/07/30 11:50:39;;;;;;;0.00;0.00;;;25.00;99.90;;;;;;5029099;28;20132;-67
2022/07/30 11:53:07;;;;;;;0.00;0.00;;;24.70;99.90;;;;;;5029838;28;20038;-67
2022/07/30 11:55:36;;;;;;;0.13;0.13;;;24.80;99.90;;;;;;5040016;28;20041;-67
2022/07/30 11:58:05;;;;;;;0.00;0.00;;;24.90;99.90;;;;;;5039979;28;20033;-67
2022/07/30 12:00:36;;;;;;;0.00;0.00;;;24.80;99.90;;;;;;5036427;28;20142;-67
2022/07/30 12:03:13;;;;;;;0.03;0.03;;;24.90;99.90;;;;;;5042909;28;20774;-67
2022/07/30 12:05:39;;;;;;;0.20;0.20;;;24.80;99.90;;;;;;5049494;28;20088;-67
2022/07/30 12:08:05;;;;;;;0.00;0.00;;;25.20;99.90;;;;;;5048317;28;20404;-67
2022/07/30 12:10:31;;;;;;;0.05;0.05;;;25.10;99.90;;;;;;5048718;28;20044;-67
2022/07/30 12:13:11;;;;;;;0.10;0.10;;;25.10;99.90;;;;;;5049449;28;20041;-67
2022/07/30 12:15:40;;;;;;;0.00;0.00;;;25.10;99.90;;;;;;5049255;28;20045;-68
2022/07/30 12:18:06;;;;;;;3.20;1.85;;;25.10;99.90;;;;;;5029989;28;20485;-67
2022/07/30 12:20:32;;;;;;;0.00;0.00;;;25.30;99.90;;;;;;5029077;28;20045;-67
2022/07/30 12:22:58;;;;;;;0.00;0.00;;;25.30;99.90;;;;;;5029689;28;20033;-67
2022/07/30 12:25:24;;;;;;;0.13;0.10;;;25.30;99.90;;;;;;5043869;28;20049;-67
2022/07/30 12:27:54;;;;;;;1.25;0.52;;;25.40;99.90;;;;;;5029261;28;20319;-67
2022/07/30 12:30:19;;;;;;;0.57;0.55;;;25.40;99.90;;;;;;5028005;28;20053;-67
2022/07/30 12:32:46;;;;;;;0.00;0.00;;;25.50;99.90;;;;;;5028593;28;20048;-67
2022/07/30 12:35:12;;;;;;;0.00;0.00;;;25.60;99.90;;;;;;5027730;28;20057;-67
2022/07/30 12:37:38;;;;;;;0.00;0.00;;;25.90;99.90;;;;;;5027966;28;20095;-67
2022/07/30 12:40:12;;;;;;;0.00;0.00;;;26.20;99.90;;;;;;5027615;28;20049;-67
2022/07/30 12:42:50;;;;;;;0.43;0.43;;;25.90;99.90;;;;;;5041803;28;20056;-67
2022/07/30 12:45:30;;;;;;;0.00;0.00;;;25.70;99.90;;;;;;5029841;28;20049;-67
2022/07/30 12:47:56;;;;;;;1.17;0.40;;;25.70;99.90;;;;;;5028949;28;20080;-67
2022/07/30 12:50:22;;;;;;;0.00;0.00;;;25.60;99.90;;;;;;5028284;28;20543;-67
2022/07/30 12:52:52;;;;;;;0.65;0.65;;;25.30;99.60;;;;;;5039047;28;20041;-67
2022/07/30 12:55:30;;;;;;;0.00;0.00;;;25.30;99.00;;;;;;5029949;28;20099;-67